createdAt,value
2023-02-19T00:01:31.427Z,12.57
2023-02-19T00:04:07.714Z,12.80
2023-02-19T00:06:35.532Z,12.07
2023-02-19T00:09:03.254Z,12.10
2023-02-19T00:11:33.033Z,12.73
2023-02-19T00:14:01.989Z,10.70
2023-02-19T00:16:37.646Z,11.17
2023-02-19T00:19:07.379Z,11.93
2023-02-19T00:21:34.780Z,12.97
2023-02-19T00:24:04.542Z,13.10
2023-02-19T00:26:32.146Z,12.13
2023-02-19T00:29:02.456Z,13.40
2023-02-19T00:31:33.101Z,13.80
2023-02-19T00:34:02.608Z,13.47
2023-02-19T00:36:30.956Z,13.30
2023-02-19T00:38:58.058Z,14.63
2023-02-19T00:41:25.701Z,15.23
2023-02-19T00:44:01.056Z,10.57
2023-02-19T00:46:36.738Z,15.30
2023-02-19T00:49:05.135Z,16.07
2023-02-19T00:51:35.263Z,17.00
2023-02-19T00:54:02.742Z,16.50
2023-02-19T00:56:29.803Z,15.90
2023-02-19T00:58:57.104Z,17.07
2023-02-19T01:01:24.075Z,16.13
2023-02-19T01:03:50.950Z,16.60
2023-02-19T01:06:20.373Z,16.63
2023-02-19T01:08:47.895Z,16.20
2023-02-19T01:11:15.259Z,16.03
2023-02-19T01:13:43.135Z,16.43
2023-02-19T01:16:14.591Z,16.90
2023-02-19T01:18:42.336Z,16.70
2023-02-19T01:21:15.284Z,16.67
2023-02-19T01:23:42.884Z,16.17
2023-02-19T01:26:14.628Z,16.13
2023-02-19T01:28:42.039Z,15.77
2023-02-19T01:31:13.126Z,16.03
2023-02-19T01:33:40.670Z,16.90
2023-02-19T01:36:08.179Z,17.07
2023-02-19T01:38:35.057Z,17.90
2023-02-19T01:41:07.114Z,17.17
2023-02-19T01:43:35.538Z,18.33
2023-02-19T01:46:02.670Z,19.07
2023-02-19T01:48:38.504Z,19.80
2023-02-19T01:51:20.084Z,20.10
2023-02-19T01:53:55.174Z,20.63
2023-02-19T01:56:23.684Z,21.67
2023-02-19T01:58:50.719Z,21.67
2023-02-19T02:01:17.706Z,19.47
2023-02-19T02:03:48.973Z,20.10
2023-02-19T02:06:28.859Z,22.17
2023-02-19T02:09:17.221Z,21.10
2023-02-19T02:11:48.698Z,20.90
2023-02-19T02:14:18.416Z,19.93
2023-02-19T02:16:45.416Z,21.20
2023-02-19T02:19:47.336Z,20.87
2023-02-19T02:22:28.795Z,21.33
2023-02-19T02:25:23.268Z,21.70
2023-02-19T02:28:23.592Z,20.67
2023-02-19T02:31:17.224Z,20.60
2023-02-19T02:33:46.790Z,20.70
2023-02-19T02:36:24.269Z,20.07
2023-02-19T02:38:54.244Z,22.10
2023-02-19T02:41:21.736Z,21.40
2023-02-19T02:43:48.751Z,19.63
2023-02-19T02:46:21.658Z,21.37
2023-02-19T02:48:54.108Z,21.90
2023-02-19T02:51:23.930Z,22.37
2023-02-19T02:54:35.000Z,20.87
2023-02-19T02:57:02.574Z,15.17
2023-02-19T03:02:26.263Z,18.97
2023-02-19T03:05:25.992Z,18.40
2023-02-19T03:08:12.242Z,17.87
2023-02-19T03:10:44.582Z,14.80
2023-02-19T03:13:45.900Z,16.80
2023-02-19T03:16:42.946Z,18.00
2023-02-19T03:19:20.396Z,15.80
2023-02-19T03:22:11.748Z,17.30
2023-02-19T03:25:03.760Z,17.00
2023-02-19T03:27:32.575Z,15.87
2023-02-19T03:30:07.575Z,17.43
2023-02-19T03:32:37.518Z,17.10
2023-02-19T03:35:13.607Z,15.07
2023-02-19T03:38:10.048Z,15.20
2023-02-19T03:41:01.334Z,16.17
2023-02-19T03:43:44.656Z,13.37
2023-02-19T03:46:23.313Z,11.37
2023-02-19T03:49:02.501Z,14.73
2023-02-19T03:51:45.918Z,13.60
2023-02-19T03:54:31.891Z,15.23
2023-02-19T03:57:18.033Z,14.33
2023-02-19T04:00:24.400Z,15.43
2023-02-19T04:02:56.608Z,15.03
2023-02-19T04:05:28.105Z,16.40
2023-02-19T04:08:03.928Z,15.23
2023-02-19T04:10:32.111Z,13.97
2023-02-19T04:13:15.769Z,15.30
2023-02-19T04:15:44.490Z,15.03
2023-02-19T04:18:16.455Z,13.13
2023-02-19T04:20:46.681Z,14.83
2023-02-19T04:23:17.127Z,13.63
2023-02-19T04:25:46.927Z,13.63
2023-02-19T04:28:16.571Z,12.87
2023-02-19T04:30:44.207Z,11.50
2023-02-19T04:33:11.245Z,12.27
2023-02-19T04:35:38.072Z,11.77
2023-02-19T04:38:05.031Z,11.27
2023-02-19T04:40:32.101Z,11.60
2023-02-19T04:42:59.086Z,10.23
2023-02-19T04:45:25.968Z,10.40
2023-02-19T04:47:52.877Z,9.87
2023-02-19T04:50:19.846Z,9.63
2023-02-19T04:52:46.658Z,9.93
2023-02-19T04:55:13.504Z,9.30
2023-02-19T04:57:40.330Z,8.53
2023-02-19T05:00:08.256Z,8.80
2023-02-19T05:02:35.556Z,8.00
2023-02-19T05:05:02.670Z,7.60
2023-02-19T05:07:29.487Z,8.37
2023-02-19T05:09:56.799Z,8.50
2023-02-19T05:12:23.660Z,9.07
2023-02-19T05:14:50.949Z,7.27
2023-02-19T05:17:17.916Z,8.10
2023-02-19T05:19:45.713Z,8.43
2023-02-19T05:22:12.558Z,7.27
2023-02-19T05:24:39.559Z,8.10
2023-02-19T05:27:06.423Z,7.67
2023-02-19T05:29:33.224Z,8.00
2023-02-19T05:32:00.186Z,7.97
2023-02-19T05:34:27.035Z,8.67
2023-02-19T05:36:53.976Z,8.60
2023-02-19T05:39:20.844Z,8.87
2023-02-19T05:41:47.758Z,8.07
2023-02-19T05:44:14.577Z,7.87
2023-02-19T05:46:41.499Z,8.27
2023-02-19T05:49:08.316Z,7.70
2023-02-19T05:51:35.345Z,7.93
2023-02-19T05:54:02.230Z,8.13
2023-02-19T05:56:33.565Z,7.47
2023-02-19T05:59:03.960Z,7.77
2023-02-19T06:01:31.375Z,8.17
2023-02-19T06:03:58.481Z,7.80
2023-02-19T06:06:26.518Z,7.87
2023-02-19T06:08:53.916Z,8.53
2023-02-19T06:11:21.010Z,8.43
2023-02-19T06:13:49.424Z,8.43
2023-02-19T06:16:17.883Z,8.47
2023-02-19T06:18:45.958Z,8.43
2023-02-19T06:21:13.492Z,8.27
2023-02-19T06:23:40.986Z,7.70
2023-02-19T06:26:15.584Z,8.30
2023-02-19T06:28:42.684Z,8.20
2023-02-19T06:31:10.450Z,7.80
2023-02-19T06:33:41.602Z,8.73
2023-02-19T06:36:12.428Z,8.60
2023-02-19T06:38:39.527Z,8.03
2023-02-19T06:41:07.666Z,8.30
2023-02-19T06:43:35.295Z,8.20
2023-02-19T06:46:04.235Z,8.47
2023-02-19T06:48:32.027Z,7.80
2023-02-19T06:50:59.499Z,7.33
2023-02-19T06:53:26.826Z,5.10
